createdAt,value
2023-04-18T00:00:02.858Z,83.3893
2023-04-18T00:01:03.924Z,83.3251
2023-04-18T00:02:05.116Z,83.2816
2023-04-18T00:03:06.695Z,83.2567
2023-04-18T00:04:08.528Z,83.3324
2023-04-18T00:05:09.883Z,83.3724
2023-04-18T00:06:11.000Z,83.1246
2023-04-18T00:07:12.160Z,83.6963
2023-04-18T00:08:13.294Z,83.6244
2023-04-18T00:09:14.560Z,83.7483
2023-04-18T00:10:15.669Z,83.2590
2023-04-18T00:11:16.747Z,82.9141
2023-04-18T00:12:17.831Z,82.9794
2023-04-18T00:13:18.972Z,83.4450
2023-04-18T00:14:20.067Z,83.5279
2023-04-18T00:15:21.178Z,83.4037
2023-04-18T00:16:22.314Z,83.2969
2023-04-18T00:17:23.505Z,83.4080
2023-04-18T00:18:24.622Z,83.0744
2023-04-18T00:19:25.739Z,82.8940
2023-04-18T00:20:26.854Z,82.8082
2023-04-18T00:21:27.951Z,83.3094
2023-04-18T00:22:29.078Z,82.8190
2023-04-18T00:23:30.233Z,82.7792
2023-04-18T00:24:31.319Z,82.6228
2023-04-18T00:25:32.447Z,82.7660
2023-04-18T00:26:33.517Z,83.2879
2023-04-18T00:27:34.695Z,83.0356
2023-04-18T00:28:35.764Z,82.9935
2023-04-18T00:29:36.928Z,82.8382
2023-04-18T00:30:38.092Z,82.7855
2023-04-18T00:31:39.181Z,82.6439
2023-04-18T00:32:40.314Z,82.4902
2023-04-18T00:33:41.387Z,82.6932
2023-04-18T00:34:42.551Z,82.6414
2023-04-18T00:35:43.678Z,82.6366
2023-04-18T00:36:44.763Z,82.6009
2023-04-18T00:37:45.841Z,82.6248
2023-04-18T00:38:46.958Z,82.9445
2023-04-18T00:39:48.094Z,82.9198
2023-04-18T00:40:49.246Z,82.8601
2023-04-18T00:41:50.364Z,83.0050
2023-04-18T00:42:51.431Z,82.7826
2023-04-18T00:43:52.705Z,82.8950
2023-04-18T00:44:53.736Z,82.8051
2023-04-18T00:45:54.861Z,83.0206
2023-04-18T00:46:55.940Z,83.0115
2023-04-18T00:47:57.012Z,82.9788
2023-04-18T00:48:58.095Z,82.7907
2023-04-18T00:49:59.227Z,82.8443
2023-04-18T00:51:00.303Z,82.7982
2023-04-18T00:52:01.393Z,82.9059
2023-04-18T00:53:02.507Z,82.9590
2023-04-18T00:54:03.632Z,82.9020
2023-04-18T00:55:04.714Z,82.8623
2023-04-18T00:56:05.833Z,82.8323
2023-04-18T00:57:06.915Z,82.7822
2023-04-18T00:58:08.013Z,82.8245
2023-04-18T00:59:09.071Z,82.9353
2023-04-18T01:00:10.194Z,82.9297
2023-04-18T01:01:11.341Z,82.8603
2023-04-18T01:02:12.503Z,82.8234
2023-04-18T01:03:13.766Z,82.8925
2023-04-18T01:04:15.137Z,83.1004
2023-04-18T01:05:16.646Z,83.5937
2023-04-18T01:06:17.770Z,83.6469
2023-04-18T01:07:18.891Z,83.3457
2023-04-18T01:08:19.965Z,83.2030
2023-04-18T01:09:21.087Z,82.9498
2023-04-18T01:10:22.223Z,82.9192
2023-04-18T01:11:23.510Z,82.8006
2023-04-18T01:12:24.584Z,82.7645
2023-04-18T01:13:25.724Z,82.6789
2023-04-18T01:14:26.773Z,82.6388
2023-04-18T01:15:27.921Z,82.5116
2023-04-18T01:16:29.032Z,82.5746
2023-04-18T01:17:30.219Z,82.3377
2023-04-18T01:18:31.362Z,82.4836
2023-04-18T01:19:32.717Z,82.5211
2023-04-18T01:20:33.873Z,82.6212
2023-04-18T01:21:35.023Z,82.8651
2023-04-18T01:22:36.166Z,82.8213
2023-04-18T01:23:37.283Z,82.5551
2023-04-18T01:24:38.377Z,82.7068
2023-04-18T01:25:39.626Z,82.8750
2023-04-18T01:26:40.665Z,82.6462
2023-04-18T01:27:41.824Z,82.6790
2023-04-18T01:28:42.925Z,82.5997
2023-04-18T01:29:44.016Z,82.7539
2023-04-18T01:30:45.224Z,82.7598
2023-04-18T01:31:46.431Z,83.1437
2023-04-18T01:32:47.573Z,82.9731
2023-04-18T01:33:48.669Z,83.0750
2023-04-18T01:34:49.765Z,83.1106
2023-04-18T01:35:51.099Z,83.0560
2023-04-18T01:36:52.150Z,83.1119
2023-04-18T01:37:53.215Z,83.0468
2023-04-18T01:38:54.348Z,83.0718
2023-04-18T01:39:55.510Z,83.1256
2023-04-18T01:40:56.603Z,83.0840
2023-04-18T01:41:57.862Z,83.0304
2023-04-18T01:42:58.942Z,82.8300
2023-04-18T01:44:00.016Z,82.7592
2023-04-18T01:45:01.140Z,82.6419
2023-04-18T01:46:02.301Z,82.7151
2023-04-18T01:47:03.440Z,82.6729
2023-04-18T01:48:04.552Z,82.6989
2023-04-18T01:49:05.640Z,82.9323
2023-04-18T01:50:06.743Z,83.1201
2023-04-18T01:51:07.852Z,83.7148
2023-04-18T01:52:09.020Z,83.1761
2023-04-18T01:53:10.465Z,83.0612
2023-04-18T01:54:11.823Z,83.0014
2023-04-18T01:55:13.442Z,83.3429
2023-04-18T01:56:14.535Z,83.3338
2023-04-18T01:57:15.646Z,83.0898
2023-04-18T01:58:16.748Z,83.0535
2023-04-18T01:59:17.955Z,83.1398
2023-04-18T02:00:19.109Z,83.2031
2023-04-18T02:01:20.340Z,83.3351
2023-04-18T02:02:21.768Z,83.2996
2023-04-18T02:03:23.273Z,83.5675
2023-04-18T02:04:24.484Z,83.3203
2023-04-18T02:05:25.601Z,83.2378
2023-04-18T02:06:26.995Z,83.1972
2023-04-18T02:07:28.151Z,83.2693
2023-04-18T02:08:29.272Z,83.1433
2023-04-18T02:09:30.388Z,83.2892
2023-04-18T02:10:31.523Z,83.5311
2023-04-18T02:11:32.673Z,83.5908
2023-04-18T02:12:33.753Z,83.6384
2023-04-18T02:13:35.033Z,83.5942
2023-04-18T02:14:36.385Z,84.0880
2023-04-18T02:15:37.549Z,83.7759
2023-04-18T02:16:38.708Z,83.8325
2023-04-18T02:17:39.799Z,83.6250
2023-04-18T02:18:40.960Z,83.6076
2023-04-18T02:19:42.086Z,83.8100
2023-04-18T02:20:43.212Z,83.6864
2023-04-18T02:21:44.324Z,83.6875
2023-04-18T02:22:45.481Z,84.0204
2023-04-18T02:23:46.600Z,84.2287
2023-04-18T02:24:47.707Z,84.1600
2023-04-18T02:25:48.804Z,84.3027
2023-04-18T02:26:49.927Z,84.4887
2023-04-18T02:27:51.034Z,84.5414
2023-04-18T02:28:52.266Z,84.4658
2023-04-18T02:29:53.442Z,84.4428
2023-04-18T02:30:54.576Z,84.2066
2023-04-18T02:31:55.785Z,84.0816
2023-04-18T02:32:56.977Z,84.0640
2023-04-18T02:33:59.219Z,84.0362
2023-04-18T02:35:00.317Z,84.1139
2023-04-18T02:36:01.426Z,84.1643
2023-04-18T02:37:02.576Z,84.0943
2023-04-18T02:38:03.807Z,84.2148
2023-04-18T02:39:04.936Z,84.2161
2023-04-18T02:40:06.061Z,84.1296
2023-04-18T02:41:07.203Z,84.2014
2023-04-18T02:42:08.335Z,84.1180
2023-04-18T02:43:09.510Z,84.2011
2023-04-18T02:44:10.626Z,84.2226
2023-04-18T02:45:11.856Z,84.3331
2023-04-18T02:46:13.041Z,84.5685
2023-04-18T02:47:14.188Z,84.3327
2023-04-18T02:48:15.424Z,84.3612
2023-04-18T02:49:16.595Z,84.3393
2023-04-18T02:50:17.673Z,84.3144
2023-04-18T02:51:18.908Z,84.3486
2023-04-18T02:52:20.047Z,84.3409
2023-04-18T02:53:21.211Z,84.4027
2023-04-18T02:54:22.307Z,84.4578
2023-04-18T02:55:23.455Z,84.5923
2023-04-18T02:56:24.539Z,84.4037
2023-04-18T02:57:25.643Z,84.3335
2023-04-18T02:58:26.784Z,84.1651
2023-04-18T02:59:27.924Z,84.2129
2023-04-18T03:00:29.047Z,84.5289
2023-04-18T03:01:30.199Z,84.6423
2023-04-18T03:02:31.454Z,84.5660
2023-04-18T03:03:32.742Z,84.5252
2023-04-18T03:04:33.945Z,84.5160
2023-04-18T03:05:35.159Z,84.5256
2023-04-18T03:06:36.288Z,84.5214
2023-04-18T03:07:37.428Z,84.4558
2023-04-18T03:08:38.533Z,84.4735
2023-04-18T03:09:39.674Z,84.5469
2023-04-18T03:10:40.812Z,84.5892
2023-04-18T03:11:42.104Z,84.5441
2023-04-18T03:12:43.249Z,84.5447
2023-04-18T03:13:44.410Z,84.7804
2023-04-18T03:14:45.548Z,84.8102
2023-04-18T03:15:46.708Z,84.7144
2023-04-18T03:16:47.812Z,84.7533
2023-04-18T03:17:49.136Z,84.7699
2023-04-18T03:18:50.280Z,84.8922
2023-04-18T03:19:51.459Z,84.8305
2023-04-18T03:20:52.653Z,84.6582
2023-04-18T03:21:53.798Z,84.6874
2023-04-18T03:22:55.022Z,84.6685
2023-04-18T03:23:56.120Z,84.8264
2023-04-18T03:24:57.230Z,84.6827
2023-04-18T03:25:58.346Z,84.8205
2023-04-18T03:26:59.532Z,84.7362
2023-04-18T03:28:00.706Z,84.6622
2023-04-18T03:29:01.945Z,84.6580
2023-04-18T03:30:03.139Z,84.6289
2023-04-18T03:31:04.389Z,84.6566
2023-04-18T03:32:05.533Z,84.7444
2023-04-18T03:33:06.625Z,84.7734
2023-04-18T03:34:07.800Z,84.6291
2023-04-18T03:35:08.967Z,84.4797
2023-04-18T03:36:10.095Z,84.6346
2023-04-18T03:37:11.204Z,84.7684
2023-04-18T03:38:12.375Z,84.8627
2023-04-18T03:39:13.485Z,84.8292
2023-04-18T03:40:14.640Z,84.8063
2023-04-18T03:41:15.765Z,84.7909
2023-04-18T03:42:16.923Z,84.7406
2023-04-18T03:43:18.076Z,84.8822
2023-04-18T03:44:19.250Z,84.8846
2023-04-18T03:45:20.425Z,84.8741
2023-04-18T03:46:21.616Z,84.8696
2023-04-18T03:47:22.749Z,84.9236
2023-04-18T03:48:23.915Z,84.8461
2023-04-18T03:49:25.036Z,84.7675
2023-04-18T03:50:26.265Z,84.6740
2023-04-18T03:51:27.363Z,84.7949
2023-04-18T03:52:29.830Z,84.5594
2023-04-18T03:53:28.775Z,84.4699
2023-04-18T03:54:29.916Z,84.4465
2023-04-18T03:55:31.065Z,84.5051
2023-04-18T03:56:32.182Z,84.4132
2023-04-18T03:57:33.277Z,84.2733
2023-04-18T03:58:34.403Z,84.0334
2023-04-18T03:59:35.529Z,84.1465
2023-04-18T04:00:36.694Z,84.1850
2023-04-18T04:01:37.909Z,84.1721
2023-04-18T04:02:39.149Z,84.3313
2023-04-18T04:03:40.409Z,84.3602
2023-04-18T04:04:41.913Z,84.3825
2023-04-18T04:05:43.044Z,84.3071
2023-04-18T04:06:44.184Z,84.3239
2023-04-18T04:07:45.378Z,84.4499
2023-04-18T04:08:46.565Z,84.4574
2023-04-18T04:09:47.681Z,84.3960
2023-04-18T04:10:48.843Z,84.4662
2023-04-18T04:11:50.008Z,84.4678
2023-04-18T04:12:51.131Z,84.4712
2023-04-18T04:13:52.282Z,84.4631
2023-04-18T04:14:53.457Z,84.4935
2023-04-18T04:15:54.620Z,84.4875
2023-04-18T04:16:55.781Z,84.6347
2023-04-18T04:17:57.080Z,84.4998
2023-04-18T04:18:58.261Z,84.4486
2023-04-18T04:19:59.372Z,84.5364
2023-04-18T04:21:00.531Z,84.4978
2023-04-18T04:22:01.610Z,84.3937
2023-04-18T04:23:02.796Z,84.4646
2023-04-18T04:24:03.952Z,84.5199
2023-04-18T04:25:05.083Z,84.6393
2023-04-18T04:26:06.202Z,84.6470
2023-04-18T04:27:07.377Z,84.6503
2023-04-18T04:28:08.591Z,84.9632
2023-04-18T04:29:09.716Z,84.8641
2023-04-18T04:30:13.308Z,84.7432
2023-04-18T04:31:12.133Z,84.7524
2023-04-18T04:32:13.324Z,84.7829
2023-04-18T04:33:14.535Z,84.8108
2023-04-18T04:34:15.958Z,84.7552
2023-04-18T04:35:17.311Z,84.7124
2023-04-18T04:36:19.006Z,84.8864
2023-04-18T04:37:20.245Z,84.8935
2023-04-18T04:38:21.440Z,84.9161
2023-04-18T04:39:22.618Z,85.0006
2023-04-18T04:40:23.733Z,84.9489
2023-04-18T04:41:24.910Z,84.9043
2023-04-18T04:42:26.052Z,84.6720
2023-04-18T04:43:27.208Z,84.7662
2023-04-18T04:44:28.364Z,84.8567
2023-04-18T04:45:29.569Z,84.8980
2023-04-18T04:46:30.684Z,84.8324
2023-04-18T04:47:31.947Z,85.0968
2023-04-18T04:48:33.212Z,85.0752
2023-04-18T04:49:34.412Z,84.9270
2023-04-18T04:50:35.583Z,84.9267
2023-04-18T04:51:36.804Z,84.8006
2023-04-18T04:52:37.990Z,84.7962
2023-04-18T04:53:39.376Z,84.6909
2023-04-18T04:54:40.800Z,84.7078
2023-04-18T04:55:42.007Z,84.7200
2023-04-18T04:56:43.169Z,84.7447
2023-04-18T04:57:44.322Z,84.7976
2023-04-18T04:58:45.445Z,84.8894
2023-04-18T04:59:46.571Z,84.9606
2023-04-18T05:00:47.733Z,84.9452
2023-04-18T05:01:48.994Z,85.0124
2023-04-18T05:02:50.520Z,84.9064
2023-04-18T05:03:51.984Z,84.7712
2023-04-18T05:04:53.188Z,84.7698
2023-04-18T05:05:54.361Z,84.7278
2023-04-18T05:06:55.440Z,84.6421
2023-04-18T05:07:56.593Z,84.7446
2023-04-18T05:08:57.819Z,84.9558
2023-04-18T05:09:58.985Z,84.9557
2023-04-18T05:11:00.168Z,84.7327
2023-04-18T05:12:01.421Z,84.7006
2023-04-18T05:13:02.588Z,84.7389
2023-04-18T05:14:03.781Z,84.8652
2023-04-18T05:15:04.934Z,84.9964
2023-04-18T05:16:06.154Z,85.1298
2023-04-18T05:17:07.354Z,85.2700
2023-04-18T05:18:08.632Z,85.3306
2023-04-18T05:19:09.819Z,85.2939
2023-04-18T05:20:10.956Z,85.2700
2023-04-18T05:21:12.182Z,85.0978
2023-04-18T05:22:13.320Z,84.9611
2023-04-18T05:23:14.486Z,84.9142
2023-04-18T05:24:15.955Z,84.9865
2023-04-18T05:25:17.374Z,84.9946
2023-04-18T05:26:18.502Z,85.3022
2023-04-18T05:27:19.637Z,85.1116
2023-04-18T05:28:20.749Z,84.9987
2023-04-18T05:29:21.950Z,84.9184
2023-04-18T05:30:23.050Z,84.9367
2023-04-18T05:31:24.194Z,84.8404
2023-04-18T05:32:25.366Z,84.6378
2023-04-18T05:33:26.466Z,84.5498
2023-04-18T05:34:27.651Z,84.5756
2023-04-18T05:35:28.769Z,84.4444
2023-04-18T05:36:29.876Z,84.3102
2023-04-18T05:37:31.047Z,84.3870
2023-04-18T05:38:32.216Z,84.4614
2023-04-18T05:39:33.373Z,84.5327
2023-04-18T05:40:34.471Z,84.7099
2023-04-18T05:41:35.645Z,84.7640
2023-04-18T05:42:36.762Z,84.7962
2023-04-18T05:43:38.001Z,84.7204
2023-04-18T05:44:39.097Z,84.5928
2023-04-18T05:45:40.277Z,84.5620
2023-04-18T05:46:41.524Z,84.7374
2023-04-18T05:47:42.740Z,84.9445
2023-04-18T05:48:43.913Z,84.9705
2023-04-18T05:49:45.029Z,84.8778
2023-04-18T05:50:46.228Z,84.6747
2023-04-18T05:51:47.367Z,84.5857
2023-04-18T05:52:48.473Z,84.5763
2023-04-18T05:53:49.640Z,84.5608
2023-04-18T05:54:50.766Z,84.5364
2023-04-18T05:55:51.889Z,84.6739
2023-04-18T05:56:53.048Z,84.9263
2023-04-18T05:57:54.219Z,84.7588
2023-04-18T05:58:55.344Z,84.8209
2023-04-18T05:59:56.487Z,84.8369
2023-04-18T06:00:57.620Z,84.8248
2023-04-18T06:01:58.805Z,84.7219
2023-04-18T06:03:00.150Z,84.7846
2023-04-18T06:04:01.814Z,84.8801
2023-04-18T06:05:03.319Z,84.8349
2023-04-18T06:06:04.762Z,84.8280
2023-04-18T06:07:05.909Z,84.9310
2023-04-18T06:08:07.151Z,84.8850
2023-04-18T06:09:08.244Z,84.8680
2023-04-18T06:10:09.386Z,84.7899
2023-04-18T06:11:10.522Z,84.7280
2023-04-18T06:12:11.874Z,84.9228
2023-04-18T06:13:13.175Z,84.8464
2023-04-18T06:14:14.442Z,84.7789
2023-04-18T06:15:15.682Z,84.8806
2023-04-18T06:16:16.957Z,84.9314
2023-04-18T06:17:18.154Z,85.0107
2023-04-18T06:18:19.319Z,84.8761
2023-04-18T06:19:20.546Z,84.7969
2023-04-18T06:20:21.695Z,84.7325
2023-04-18T06:21:22.880Z,84.7171
2023-04-18T06:22:23.995Z,84.7056
2023-04-18T06:23:25.185Z,84.6224
2023-04-18T06:24:26.380Z,84.5715
2023-04-18T06:25:27.536Z,84.6690
2023-04-18T06:26:28.748Z,84.4029
2023-04-18T06:27:31.922Z,84.3480
2023-04-18T06:28:30.627Z,84.3349
2023-04-18T06:29:31.780Z,84.3399
2023-04-18T06:30:32.913Z,84.3204
2023-04-18T06:31:34.054Z,84.2213
2023-04-18T06:32:35.304Z,84.3265
2023-04-18T06:33:36.700Z,84.2751
2023-04-18T06:34:37.870Z,84.4127
2023-04-18T06:35:39.079Z,84.3054
2023-04-18T06:36:40.209Z,84.1063
2023-04-18T06:37:41.348Z,84.0612
2023-04-18T06:38:42.478Z,84.0094
2023-04-18T06:39:43.605Z,84.0485
2023-04-18T06:40:44.806Z,84.1516
2023-04-18T06:41:45.929Z,84.3413
2023-04-18T06:42:47.084Z,84.5074
2023-04-18T06:44:02.109Z,84.4360
2023-04-18T06:44:50.029Z,84.3809
2023-04-18T06:45:51.207Z,84.4067
2023-04-18T06:46:52.377Z,84.1524
2023-04-18T06:47:53.560Z,84.2360
2023-04-18T06:48:54.703Z,84.2666
2023-04-18T06:49:55.861Z,84.4116
2023-04-18T06:50:56.992Z,84.3188
2023-04-18T06:51:58.105Z,84.4381
2023-04-18T06:52:59.352Z,84.4970
2023-04-18T06:54:00.466Z,84.4140
2023-04-18T06:55:01.670Z,84.2933
2023-04-18T06:56:02.916Z,84.2550
2023-04-18T06:57:04.092Z,84.4620
2023-04-18T06:58:05.263Z,84.4629
2023-04-18T06:59:06.501Z,84.5686
2023-04-18T07:00:07.687Z,84.6454
2023-04-18T07:01:08.925Z,84.4246
2023-04-18T07:02:10.379Z,84.3299
2023-04-18T07:03:11.920Z,84.3300
2023-04-18T07:04:13.655Z,84.4176
2023-04-18T07:05:15.395Z,84.5597
2023-04-18T07:06:16.576Z,84.6842
2023-04-18T07:07:17.766Z,84.7462
2023-04-18T07:08:18.938Z,84.7215
2023-04-18T07:09:20.179Z,84.7360
2023-04-18T07:10:21.354Z,84.7048
2023-04-18T07:11:22.521Z,84.4419
2023-04-18T07:12:23.743Z,84.6859
2023-04-18T07:13:24.881Z,84.5630
2023-04-18T07:14:26.118Z,84.6673
2023-04-18T07:15:27.305Z,84.5855
2023-04-18T07:16:28.552Z,84.4510
2023-04-18T07:17:29.766Z,84.4683
2023-04-18T07:18:37.864Z,84.3101
2023-04-18T07:19:32.796Z,84.2090
2023-04-18T07:20:34.032Z,84.0063
2023-04-18T07:21:35.233Z,83.9539
2023-04-18T07:22:36.419Z,83.9733
2023-04-18T07:23:37.596Z,83.8600
2023-04-18T07:24:38.796Z,84.1310
2023-04-18T07:25:40.037Z,84.1858
2023-04-18T07:26:41.206Z,83.9410
2023-04-18T07:27:42.404Z,84.0561
2023-04-18T07:28:43.632Z,83.9341
2023-04-18T07:29:44.782Z,83.8503
2023-04-18T07:30:45.949Z,83.7017
2023-04-18T07:31:47.112Z,83.8552
2023-04-18T07:32:48.331Z,83.6383
2023-04-18T07:33:49.487Z,83.7462
2023-04-18T07:34:50.693Z,83.8199
2023-04-18T07:35:51.847Z,83.8201
2023-04-18T07:36:53.044Z,83.9146
2023-04-18T07:37:54.219Z,83.8441
2023-04-18T07:38:55.381Z,83.7682
2023-04-18T07:39:56.578Z,83.6981
2023-04-18T07:40:57.725Z,83.6151
2023-04-18T07:41:58.942Z,83.4519
2023-04-18T07:43:00.146Z,83.1948
2023-04-18T07:44:01.308Z,83.2396
2023-04-18T07:45:02.450Z,83.1984
2023-04-18T07:46:03.679Z,82.9396
2023-04-18T07:47:04.881Z,83.0763
2023-04-18T07:48:06.060Z,83.2357
2023-04-18T07:49:07.186Z,82.9467
2023-04-18T07:50:08.369Z,82.8183
2023-04-18T07:51:09.569Z,82.9196
2023-04-18T07:52:10.753Z,83.0653
2023-04-18T07:53:11.931Z,82.6547
2023-04-18T07:54:13.139Z,82.8055
2023-04-18T07:55:14.304Z,82.4840
2023-04-18T07:56:15.536Z,82.4820
2023-04-18T07:57:16.626Z,82.3613
2023-04-18T07:58:17.788Z,82.5125
2023-04-18T07:59:18.986Z,82.3483
2023-04-18T08:00:20.118Z,82.2181
2023-04-18T08:01:21.352Z,82.1838
2023-04-18T08:02:22.596Z,81.6322
2023-04-18T08:03:24.035Z,81.0358
2023-04-18T08:04:27.575Z,80.8392
2023-04-18T08:05:27.770Z,80.9689
2023-04-18T08:06:29.024Z,81.0537
2023-04-18T08:07:30.176Z,80.9031
2023-04-18T08:08:31.322Z,80.6469
2023-04-18T08:09:32.483Z,80.6406
2023-04-18T08:10:33.714Z,80.9918
2023-04-18T08:11:35.004Z,80.4363
2023-04-18T08:12:36.157Z,80.1832
2023-04-18T08:13:37.343Z,80.0446
2023-04-18T08:14:38.523Z,79.9520
2023-04-18T08:15:39.811Z,79.8757
2023-04-18T08:16:41.036Z,79.5291
2023-04-18T08:17:42.315Z,79.0833
2023-04-18T08:18:43.505Z,79.1294
2023-04-18T08:19:44.718Z,79.1891
2023-04-18T08:20:45.886Z,79.3320
2023-04-18T08:21:47.028Z,79.4973
2023-04-18T08:23:04.843Z,79.0690
2023-04-18T08:23:49.990Z,78.7377
2023-04-18T08:25:03.860Z,78.5099
2023-04-18T08:25:52.973Z,78.6238
2023-04-18T08:26:54.236Z,78.3728
2023-04-18T08:27:55.426Z,79.6840
2023-04-18T08:28:56.597Z,79.7352
2023-04-18T08:29:57.771Z,79.9588
2023-04-18T08:30:58.939Z,79.6705
2023-04-18T08:32:00.162Z,79.8864
2023-04-18T08:33:01.581Z,80.3139
2023-04-18T08:34:04.528Z,80.5899
2023-04-18T08:35:03.782Z,80.1441
2023-04-18T08:36:04.925Z,80.1485
2023-04-18T08:37:06.073Z,80.0243
2023-04-18T08:38:07.325Z,79.7534
2023-04-18T08:39:08.514Z,79.3948
2023-04-18T08:40:09.723Z,79.1777
2023-04-18T08:41:10.866Z,79.0305
2023-04-18T08:42:12.069Z,78.9433
2023-04-18T08:43:13.258Z,79.0790
2023-04-18T08:44:14.602Z,79.1353
2023-04-18T08:45:16.004Z,79.4657
2023-04-18T08:46:17.242Z,79.5284
2023-04-18T08:47:18.460Z,79.0649
2023-04-18T08:48:19.840Z,78.5718
2023-04-18T08:49:21.036Z,78.6081
2023-04-18T08:50:22.200Z,78.6511
2023-04-18T08:51:23.339Z,78.5704
2023-04-18T08:52:24.547Z,78.3814
2023-04-18T08:53:25.725Z,78.5714
2023-04-18T08:54:27.488Z,78.2026
2023-04-18T08:55:28.813Z,78.2573
2023-04-18T08:56:29.990Z,78.0883
2023-04-18T08:57:31.211Z,77.6964
2023-04-18T08:58:32.447Z,77.9595
2023-04-18T08:59:33.633Z,78.0135
2023-04-18T09:00:34.739Z,78.2175
2023-04-18T09:01:35.942Z,78.4824
2023-04-18T09:02:37.195Z,78.5550
2023-04-18T09:03:38.567Z,78.7474
2023-04-18T09:04:39.858Z,78.9575
2023-04-18T09:05:41.000Z,78.2520
2023-04-18T09:06:42.166Z,78.3557
2023-04-18T09:07:43.321Z,78.1107
2023-04-18T09:08:44.519Z,78.1240
2023-04-18T09:09:45.662Z,77.8690
2023-04-18T09:10:46.922Z,77.5870
2023-04-18T09:11:48.085Z,77.6713
2023-04-18T09:12:49.302Z,77.6955
2023-04-18T09:13:50.542Z,77.4991
2023-04-18T09:14:51.683Z,77.4509
2023-04-18T09:15:52.917Z,77.0975
2023-04-18T09:16:54.068Z,76.9954
2023-04-18T09:17:55.291Z,76.7490
2023-04-18T09:18:56.459Z,76.7836
2023-04-18T09:19:57.590Z,76.4732
2023-04-18T09:20:58.784Z,76.7902
2023-04-18T09:21:59.946Z,77.2612
2023-04-18T09:23:01.109Z,77.1781
2023-04-18T09:24:02.297Z,77.0967
2023-04-18T09:25:03.483Z,76.8077
2023-04-18T09:26:04.663Z,76.6096
2023-04-18T09:27:05.794Z,76.7163
2023-04-18T09:28:06.951Z,76.4145
2023-04-18T09:29:08.150Z,76.2717
2023-04-18T09:30:09.325Z,75.8508
2023-04-18T09:31:10.474Z,76.0118
2023-04-18T09:32:11.608Z,76.3433
2023-04-18T09:33:12.734Z,76.6971
2023-04-18T09:34:14.134Z,76.2313
2023-04-18T09:35:15.670Z,75.6132
2023-04-18T09:36:16.887Z,75.5803
2023-04-18T09:37:17.993Z,75.8231
2023-04-18T09:38:19.187Z,75.6454
2023-04-18T09:39:20.297Z,75.4922
2023-04-18T09:40:21.439Z,75.3922
2023-04-18T09:41:22.575Z,75.0934
2023-04-18T09:42:24.083Z,75.3013
2023-04-18T09:43:25.776Z,75.2801
2023-04-18T09:44:26.937Z,75.0686
2023-04-18T09:45:28.198Z,74.8612
2023-04-18T09:46:29.372Z,74.9849
2023-04-18T09:47:30.540Z,75.6196
2023-04-18T09:48:31.675Z,75.3746
2023-04-18T09:49:32.845Z,74.9656
2023-04-18T09:50:34.004Z,75.2757
2023-04-18T09:51:35.164Z,75.6578
2023-04-18T09:52:36.283Z,75.8483
2023-04-18T09:53:37.417Z,76.1679
2023-04-18T09:54:38.551Z,76.2357
2023-04-18T09:55:39.714Z,75.7053
2023-04-18T09:56:40.841Z,75.5332
2023-04-18T09:57:41.967Z,75.5310
2023-04-18T09:58:43.105Z,75.5566
2023-04-18T09:59:44.328Z,75.4012
2023-04-18T10:00:46.901Z,75.3666
2023-04-18T10:01:45.829Z,74.8200
2023-04-18T10:02:47.033Z,74.4125
2023-04-18T10:03:48.471Z,73.8912
2023-04-18T10:04:50.035Z,73.8845
2023-04-18T10:05:51.312Z,73.3041
2023-04-18T10:06:52.476Z,73.5636
2023-04-18T10:07:53.607Z,73.5735
2023-04-18T10:08:54.735Z,73.9708
2023-04-18T10:09:55.879Z,74.0354
2023-04-18T10:10:56.990Z,73.6622
2023-04-18T10:11:58.113Z,73.4468
2023-04-18T10:12:59.217Z,73.0354
2023-04-18T10:14:00.328Z,72.9339
2023-04-18T10:15:02.150Z,73.1028
2023-04-18T10:16:03.288Z,72.8846
2023-04-18T10:17:04.410Z,73.0680
2023-04-18T10:18:06.446Z,72.7781
2023-04-18T10:19:07.963Z,73.2626
2023-04-18T10:20:09.111Z,73.3662
2023-04-18T10:21:10.229Z,73.5582
2023-04-18T10:22:11.410Z,73.4063
2023-04-18T10:23:12.625Z,73.0356
2023-04-18T10:24:13.874Z,72.6360
2023-04-18T10:25:15.499Z,72.9971
2023-04-18T10:26:16.814Z,72.0914
2023-04-18T10:27:18.030Z,72.1494
2023-04-18T10:28:19.161Z,72.9353
2023-04-18T10:29:20.298Z,73.4864
2023-04-18T10:30:21.534Z,73.0680
2023-04-18T10:31:22.857Z,73.2536
2023-04-18T10:32:24.129Z,73.7812
2023-04-18T10:33:30.894Z,74.4586
2023-04-18T10:34:26.945Z,74.3024
2023-04-18T10:35:28.065Z,74.3910
2023-04-18T10:36:29.275Z,74.5377
2023-04-18T10:37:30.308Z,74.3424
2023-04-18T10:38:31.418Z,73.8899
2023-04-18T10:39:32.556Z,74.1176
2023-04-18T10:40:33.733Z,74.1290
2023-04-18T10:41:34.843Z,73.8780
2023-04-18T10:42:35.964Z,73.8454
2023-04-18T10:43:37.117Z,74.0841
2023-04-18T10:44:38.280Z,74.1673
2023-04-18T10:45:39.411Z,74.0933
2023-04-18T10:46:40.597Z,73.4228
2023-04-18T10:47:41.908Z,73.3684
2023-04-18T10:48:43.133Z,73.2513
2023-04-18T10:49:44.268Z,73.5754
2023-04-18T10:50:45.373Z,72.5257
2023-04-18T10:51:46.471Z,72.8244
2023-04-18T10:52:47.635Z,72.7092
2023-04-18T10:53:48.760Z,72.6032
2023-04-18T10:54:49.920Z,72.3111
2023-04-18T10:55:51.052Z,72.2126
2023-04-18T10:56:52.194Z,72.7700
2023-04-18T10:57:53.302Z,72.8105
2023-04-18T10:58:54.484Z,73.0168
2023-04-18T10:59:55.542Z,72.5312
2023-04-18T11:00:56.805Z,72.0112
2023-04-18T11:01:57.988Z,71.3792
2023-04-18T11:02:59.209Z,70.4974
2023-04-18T11:04:00.517Z,69.5821
2023-04-18T11:05:01.884Z,69.4697
2023-04-18T11:06:03.003Z,70.0938
2023-04-18T11:07:04.734Z,70.0012
2023-04-18T11:08:05.824Z,70.6207
2023-04-18T11:09:06.953Z,70.8279
2023-04-18T11:10:08.007Z,70.7426
2023-04-18T11:11:09.143Z,69.7743
2023-04-18T11:12:10.263Z,70.8074
2023-04-18T11:13:11.379Z,71.3994
2023-04-18T11:14:12.602Z,70.8829
2023-04-18T11:15:14.523Z,70.9913
2023-04-18T11:16:15.926Z,71.5622
2023-04-18T11:17:17.060Z,71.4756
2023-04-18T11:18:18.183Z,71.3359
2023-04-18T11:19:19.326Z,71.2464
2023-04-18T11:20:20.418Z,70.7342
2023-04-18T11:21:21.567Z,70.3188
2023-04-18T11:22:22.687Z,69.3094
2023-04-18T11:23:23.839Z,69.4638
2023-04-18T11:24:24.937Z,69.2734
2023-04-18T11:25:26.078Z,69.1833
2023-04-18T11:26:27.218Z,69.8670
2023-04-18T11:27:28.345Z,69.6100
2023-04-18T11:28:29.460Z,70.2275
2023-04-18T11:29:30.574Z,70.4382
2023-04-18T11:30:31.927Z,70.5803
2023-04-18T11:31:33.060Z,70.5799
2023-04-18T11:32:34.589Z,71.0906
2023-04-18T11:33:35.786Z,71.3957
2023-04-18T11:34:36.852Z,71.1821
2023-04-18T11:35:37.997Z,71.1988
2023-04-18T11:36:39.155Z,70.8388
2023-04-18T11:37:40.326Z,70.3017
2023-04-18T11:38:41.714Z,70.5074
2023-04-18T11:39:42.906Z,70.3030
2023-04-18T11:40:44.072Z,70.2072
2023-04-18T11:41:45.262Z,70.5066
2023-04-18T11:42:46.414Z,70.5762
2023-04-18T11:43:47.578Z,69.0585
2023-04-18T11:44:48.698Z,67.9755
2023-04-18T11:45:49.939Z,69.3759
2023-04-18T11:46:51.146Z,68.8149
2023-04-18T11:47:52.349Z,67.2409
2023-04-18T11:48:53.496Z,67.4332
2023-04-18T11:49:56.907Z,64.7676
2023-04-18T11:50:55.603Z,64.7736
2023-04-18T11:51:56.744Z,65.3897
2023-04-18T11:52:57.884Z,65.7164
2023-04-18T11:53:59.031Z,64.6307
2023-04-18T11:55:00.182Z,64.9075
2023-04-18T11:56:01.266Z,64.0615
2023-04-18T11:57:02.378Z,62.3129
2023-04-18T11:58:03.512Z,61.3934
2023-04-18T11:59:04.631Z,61.2714
2023-04-18T12:00:05.746Z,60.4813
2023-04-18T12:01:06.845Z,61.9289
2023-04-18T12:02:16.034Z,63.8206
2023-04-18T12:03:11.771Z,65.3866
2023-04-18T12:04:12.141Z,65.1021
2023-04-18T12:05:13.918Z,65.1473
2023-04-18T12:06:15.510Z,63.8245
2023-04-18T12:07:16.587Z,63.5719
2023-04-18T12:08:17.730Z,63.4257
2023-04-18T12:09:18.833Z,62.4048
2023-04-18T12:10:19.928Z,62.4675
2023-04-18T12:11:21.031Z,60.2193
2023-04-18T12:12:22.182Z,60.2948
2023-04-18T12:13:23.247Z,60.0376
2023-04-18T12:14:24.392Z,61.0515
2023-04-18T12:15:25.634Z,60.8034
2023-04-18T12:16:26.896Z,62.1511
2023-04-18T12:17:28.019Z,62.8850
2023-04-18T12:18:29.163Z,62.2445
2023-04-18T12:19:30.309Z,61.9456